createdAt,value
2019-03-08T00:01:14.920Z,85.90
2019-03-08T00:03:44.458Z,86.70
2019-03-08T00:06:13.971Z,87.30
2019-03-08T00:08:44.040Z,88.00
2019-03-08T00:11:13.543Z,87.50
2019-03-08T00:13:43.182Z,87.00
2019-03-08T00:16:12.730Z,87.10
2019-03-08T00:18:42.211Z,87.20
2019-03-08T00:21:11.769Z,87.50
2019-03-08T00:23:41.328Z,88.30
2019-03-08T00:26:10.914Z,87.60
2019-03-08T00:28:40.660Z,87.80
2019-03-08T00:31:10.265Z,87.60
2019-03-08T00:33:39.756Z,87.70
2019-03-08T00:36:09.694Z,88.40
2019-03-08T00:38:39.163Z,89.10
2019-03-08T00:41:08.665Z,89.10
2019-03-08T00:43:38.221Z,90.10
2019-03-08T00:46:07.698Z,90.00
2019-03-08T00:48:37.372Z,90.10
2019-03-08T00:51:06.940Z,90.50
2019-03-08T00:53:36.410Z,90.60
2019-03-08T00:56:06.036Z,90.70
2019-03-08T00:58:35.551Z,90.80
2019-03-08T01:01:05.682Z,91.10
2019-03-08T01:03:35.773Z,91.10
2019-03-08T01:06:05.410Z,91.10
2019-03-08T01:08:35.125Z,91.80
2019-03-08T01:11:04.679Z,91.30
2019-03-08T01:13:34.359Z,91.30
2019-03-08T01:16:03.840Z,91.90
2019-03-08T01:18:33.367Z,92.10
2019-03-08T01:21:02.943Z,92.40
2019-03-08T01:23:32.441Z,92.60
2019-03-08T01:26:02.031Z,92.70
2019-03-08T01:28:32.582Z,92.60
2019-03-08T01:31:02.442Z,92.80
2019-03-08T01:33:32.197Z,92.90
2019-03-08T01:36:01.661Z,93.00
2019-03-08T01:38:31.117Z,93.20
2019-03-08T01:41:00.881Z,93.70
2019-03-08T01:43:30.349Z,93.80
2019-03-08T01:45:59.825Z,93.90
2019-03-08T01:48:29.543Z,93.90
2019-03-08T01:50:59.009Z,94.00
2019-03-08T01:53:28.529Z,94.10
2019-03-08T01:55:58.115Z,94.10
2019-03-08T01:58:27.797Z,94.30
2019-03-08T02:00:57.629Z,94.80
2019-03-08T02:03:27.118Z,94.70
2019-03-08T02:05:56.755Z,95.00
2019-03-08T02:08:26.295Z,94.90
2019-03-08T02:10:55.755Z,95.10
2019-03-08T02:13:25.389Z,95.10
2019-03-08T02:15:54.882Z,94.90
2019-03-08T02:18:24.348Z,94.80
2019-03-08T02:20:54.190Z,94.30
2019-03-08T02:23:23.657Z,94.20
2019-03-08T02:25:53.521Z,94.00
2019-03-08T02:28:23.163Z,93.80
2019-03-08T02:30:52.626Z,93.80
2019-03-08T02:33:22.338Z,93.80
2019-03-08T02:35:51.820Z,94.00
2019-03-08T02:38:21.298Z,94.10
2019-03-08T02:40:50.910Z,94.20
2019-03-08T02:43:20.354Z,94.00
2019-03-08T02:45:49.812Z,93.90
2019-03-08T02:48:19.676Z,93.70
2019-03-08T02:50:49.125Z,93.80
2019-03-08T02:53:18.961Z,93.70
2019-03-08T02:55:48.478Z,93.60
2019-03-08T02:58:17.954Z,93.80
2019-03-08T03:00:47.967Z,93.90
2019-03-08T03:03:18.240Z,94.10
2019-03-08T03:05:48.019Z,94.30
2019-03-08T03:08:17.482Z,94.30
2019-03-08T03:10:46.974Z,94.20
2019-03-08T03:13:16.652Z,94.50
2019-03-08T03:15:46.120Z,94.60
2019-03-08T03:18:15.622Z,94.70
2019-03-08T03:20:45.347Z,94.90
2019-03-08T03:23:14.894Z,95.20
2019-03-08T03:25:44.516Z,95.30
2019-03-08T03:28:13.983Z,95.40
2019-03-08T03:30:43.453Z,95.70
2019-03-08T03:33:13.467Z,96.00
2019-03-08T03:35:42.918Z,96.30
2019-03-08T03:38:12.388Z,96.60
2019-03-08T03:40:42.094Z,96.90
2019-03-08T03:43:11.601Z,96.90
2019-03-08T03:45:41.056Z,97.10
2019-03-08T03:48:10.614Z,97.10
2019-03-08T03:50:40.054Z,97.20
2019-03-08T03:53:09.518Z,97.30
2019-03-08T03:55:39.378Z,97.50
2019-03-08T03:58:09.345Z,97.50
2019-03-08T04:00:39.990Z,97.80
2019-03-08T04:03:09.527Z,97.80
2019-03-08T04:05:39.052Z,98.10
2019-03-08T04:08:08.504Z,98.20
2019-03-08T04:10:38.020Z,98.40
2019-03-08T04:13:07.629Z,98.50
2019-03-08T04:15:37.206Z,98.60
2019-03-08T04:18:06.714Z,98.80
2019-03-08T04:20:36.366Z,99.00
2019-03-08T04:23:05.849Z,99.30
2019-03-08T04:25:35.358Z,99.40
2019-03-08T04:28:05.120Z,99.40
2019-03-08T04:30:34.636Z,99.30
2019-03-08T04:33:04.257Z,99.30
2019-03-08T04:35:33.770Z,99.50
2019-03-08T04:38:03.489Z,99.30
2019-03-08T04:40:33.108Z,99.30
2019-03-08T04:43:02.589Z,99.60
2019-03-08T04:45:32.415Z,99.70
2019-03-08T04:48:01.879Z,99.50
2019-03-08T04:50:31.341Z,99.70
2019-03-08T04:53:00.917Z,99.70
2019-03-08T04:55:30.703Z,99.50
2019-03-08T04:58:00.233Z,99.40
2019-03-08T05:00:29.837Z,99.20
2019-03-08T05:02:59.309Z,99.50
2019-03-08T05:05:28.865Z,99.10
2019-03-08T05:07:58.386Z,99.20
2019-03-08T05:10:27.899Z,99.10
2019-03-08T05:12:57.420Z,98.80
2019-03-08T05:15:27.082Z,98.70
2019-03-08T05:17:58.400Z,98.60
2019-03-08T05:20:27.723Z,98.70
2019-03-08T05:22:57.726Z,98.50
2019-03-08T05:25:27.201Z,98.30
2019-03-08T05:27:56.778Z,98.30
2019-03-08T05:30:26.327Z,98.30
2019-03-08T05:32:55.857Z,98.10
2019-03-08T05:35:25.557Z,97.90
2019-03-08T05:37:55.024Z,98.10
2019-03-08T05:40:43.681Z,97.60
2019-03-08T05:43:13.174Z,97.50
2019-03-08T05:45:42.646Z,97.20
2019-03-08T05:48:12.323Z,97.20
2019-03-08T05:50:41.801Z,97.00
2019-03-08T05:53:11.264Z,97.00
2019-03-08T05:55:41.004Z,96.50
2019-03-08T05:58:10.424Z,96.60
2019-03-08T06:00:39.901Z,96.60
2019-03-08T06:03:09.586Z,96.50
2019-03-08T06:05:39.066Z,96.40
2019-03-08T06:08:08.549Z,96.10
2019-03-08T06:10:38.537Z,96.10
2019-03-08T06:13:08.177Z,96.00
2019-03-08T06:15:37.600Z,95.80
2019-03-08T06:18:07.089Z,95.50
2019-03-08T06:20:36.612Z,95.00
2019-03-08T06:23:06.259Z,94.90
2019-03-08T06:25:35.847Z,94.60
2019-03-08T06:28:05.395Z,94.10
2019-03-08T06:30:35.229Z,93.60
2019-03-08T06:33:04.734Z,93.50
2019-03-08T06:35:34.268Z,92.90
2019-03-08T06:38:03.788Z,92.40
2019-03-08T06:40:33.260Z,91.80
2019-03-08T06:43:03.021Z,90.70
2019-03-08T06:45:32.870Z,89.60
2019-03-08T06:48:02.319Z,88.90
2019-03-08T06:50:31.817Z,86.70
2019-03-08T06:53:01.297Z,86.30
2019-03-08T06:55:30.797Z,85.20
2019-03-08T06:58:02.102Z,84.30
2019-03-08T07:00:36.203Z,82.20
2019-03-08T07:03:06.341Z,80.10
2019-03-08T07:05:35.843Z,79.40
2019-03-08T07:08:05.484Z,79.00
2019-03-08T07:10:35.171Z,78.10
2019-03-08T07:13:04.659Z,77.00
2019-03-08T07:15:34.163Z,76.40
2019-03-08T07:18:12.000Z,75.90
2019-03-08T07:20:42.779Z,75.30
2019-03-08T07:23:27.622Z,74.10
2019-03-08T07:26:24.626Z,74.00
2019-03-08T07:29:02.045Z,72.90
2019-03-08T07:31:48.473Z,71.90
2019-03-08T07:34:35.749Z,70.10
2019-03-08T07:37:22.971Z,70.40
2019-03-08T07:40:31.647Z,69.50
2019-03-08T07:43:18.077Z,69.60
2019-03-08T07:45:55.306Z,67.90
2019-03-08T07:48:40.848Z,67.20
2019-03-08T07:51:23.607Z,65.00
2019-03-08T07:54:17.973Z,64.30
2019-03-08T07:57:15.470Z,64.30
2019-03-08T08:00:09.367Z,63.30
2019-03-08T08:03:04.091Z,62.90
2019-03-08T08:05:57.550Z,62.70
2019-03-08T08:08:35.882Z,61.80
2019-03-08T08:11:24.612Z,61.30
2019-03-08T08:14:22.087Z,61.80
2019-03-08T08:17:25.678Z,62.20
2019-03-08T08:20:20.019Z,61.30
2019-03-08T08:22:55.051Z,60.30
2019-03-08T08:25:40.989Z,59.80
2019-03-08T08:28:27.723Z,60.20
2019-03-08T08:31:17.543Z,60.20
2019-03-08T08:34:08.684Z,60.10
2019-03-08T08:36:55.066Z,61.40
2019-03-08T08:39:33.210Z,59.70
2019-03-08T08:42:20.727Z,59.20
2019-03-08T08:45:17.414Z,59.30
2019-03-08T08:48:07.751Z,58.90
2019-03-08T08:51:05.266Z,58.90
2019-03-08T08:54:11.977Z,57.40
2019-03-08T08:57:03.172Z,56.20
2019-03-08T08:59:40.244Z,57.00
2019-03-08T09:02:43.758Z,57.50
2019-03-08T09:05:38.236Z,56.40
2019-03-08T09:08:29.485Z,56.50
2019-03-08T09:11:03.642Z,56.80
2019-03-08T09:13:51.264Z,56.30
2019-03-08T09:16:38.568Z,55.40
2019-03-08T09:19:18.622Z,54.40
2019-03-08T09:21:57.597Z,55.20
2019-03-08T09:24:55.268Z,54.70
2019-03-08T09:27:49.752Z,54.90
2019-03-08T09:30:36.861Z,55.40
2019-03-08T09:33:18.126Z,53.50
2019-03-08T09:36:10.496Z,53.40
2019-03-08T09:39:03.053Z,52.50
2019-03-08T09:41:57.469Z,52.10
2019-03-08T09:44:48.200Z,52.60
2019-03-08T09:47:44.152Z,52.40
2019-03-08T09:50:38.977Z,51.20
2019-03-08T09:53:42.478Z,51.30
2019-03-08T09:56:30.854Z,50.50
2019-03-08T09:59:22.075Z,49.50
2019-03-08T10:02:01.850Z,48.40
2019-03-08T10:04:45.228Z,48.30
2019-03-08T10:07:31.503Z,48.60
2019-03-08T10:10:08.658Z,48.90
2019-03-08T10:12:56.145Z,48.80
2019-03-08T10:15:40.978Z,48.00
2019-03-08T10:18:29.375Z,48.40
2019-03-08T10:21:21.033Z,48.70
2019-03-08T10:24:09.522Z,49.90
2019-03-08T10:26:57.917Z,48.90
2019-03-08T10:29:45.202Z,48.90
2019-03-08T10:32:25.923Z,49.10
2019-03-08T10:35:23.251Z,49.70
2019-03-08T10:38:07.387Z,50.10
2019-03-08T10:40:43.023Z,50.50
2019-03-08T10:43:31.427Z,50.30
2019-03-08T10:46:35.207Z,49.10
2019-03-08T10:49:32.479Z,49.20
2019-03-08T10:52:36.308Z,49.10
2019-03-08T10:55:27.888Z,48.90
2019-03-08T10:58:19.530Z,48.80
2019-03-08T11:01:23.293Z,48.30
2019-03-08T11:04:14.926Z,49.10
2019-03-08T11:07:01.761Z,48.80
2019-03-08T11:09:40.517Z,48.40
2019-03-08T11:12:44.035Z,48.00
2019-03-08T11:15:35.884Z,47.20
2019-03-08T11:18:23.059Z,46.40
2019-03-08T11:21:07.829Z,46.50
2019-03-08T11:23:55.209Z,46.20
2019-03-08T11:26:46.645Z,45.60
2019-03-08T11:29:27.416Z,45.30
2019-03-08T11:32:22.746Z,45.50
2019-03-08T11:35:13.570Z,45.40
2019-03-08T11:38:00.437Z,45.30
2019-03-08T11:40:46.250Z,45.00
2019-03-08T11:43:36.927Z,45.70
2019-03-08T11:46:47.798Z,44.00
2019-03-08T11:49:46.928Z,44.00
2019-03-08T11:52:47.714Z,44.00
2019-03-08T11:55:48.067Z,44.60
2019-03-08T11:58:51.965Z,45.00
2019-03-08T12:01:48.406Z,45.00
2019-03-08T12:04:36.943Z,44.60
2019-03-08T12:07:15.568Z,45.20
2019-03-08T12:10:22.432Z,45.10
2019-03-08T12:13:19.620Z,45.40
2019-03-08T12:16:08.140Z,45.20
2019-03-08T12:18:45.342Z,46.10
2019-03-08T12:21:34.834Z,45.30
2019-03-08T12:24:23.539Z,45.00
2019-03-08T12:27:20.784Z,44.90
2019-03-08T12:30:09.268Z,45.50
2019-03-08T12:33:00.734Z,46.20
2019-03-08T12:35:55.140Z,46.40
2019-03-08T12:38:36.416Z,46.90
2019-03-08T12:41:37.070Z,47.10
2019-03-08T12:44:20.398Z,47.30
2019-03-08T12:46:55.101Z,47.50
2019-03-08T12:49:43.514Z,47.70
2019-03-08T12:52:32.329Z,48.30
2019-03-08T12:55:19.256Z,48.50
2019-03-08T12:58:22.731Z,48.50
2019-03-08T13:01:23.483Z,48.30
2019-03-08T13:04:18.019Z,48.30
2019-03-08T13:06:54.926Z,48.70
2019-03-08T13:09:42.339Z,48.70
2019-03-08T13:12:11.825Z,49.40
2019-03-08T13:14:41.305Z,49.70
2019-03-08T13:17:10.841Z,49.50
2019-03-08T13:19:40.292Z,49.00
2019-03-08T13:22:09.755Z,49.30
2019-03-08T13:24:39.269Z,49.30
2019-03-08T13:27:08.735Z,49.50
2019-03-08T13:29:38.163Z,49.50
2019-03-08T13:32:08.560Z,49.50
2019-03-08T13:34:38.029Z,49.20
2019-03-08T13:37:08.029Z,49.30
2019-03-08T13:39:37.476Z,49.50
2019-03-08T13:42:06.964Z,49.90
2019-03-08T13:44:36.677Z,49.70
2019-03-08T13:47:06.462Z,50.50
2019-03-08T13:49:35.904Z,50.10
2019-03-08T13:52:05.439Z,50.10
2019-03-08T13:54:34.882Z,50.20
2019-03-08T13:57:04.345Z,50.00
2019-03-08T13:59:33.914Z,49.90
2019-03-08T14:02:03.394Z,50.00
2019-03-08T14:04:32.855Z,50.20
2019-03-08T14:07:02.379Z,49.70
2019-03-08T14:09:32.254Z,50.20
2019-03-08T14:12:01.715Z,50.10
2019-03-08T14:14:31.388Z,50.40
2019-03-08T14:17:00.882Z,50.00
2019-03-08T14:19:30.330Z,50.50
2019-03-08T14:21:59.822Z,49.80
2019-03-08T14:24:29.300Z,50.00
2019-03-08T14:26:58.865Z,50.20
2019-03-08T14:29:28.332Z,50.20
2019-03-08T14:32:00.421Z,50.40
2019-03-08T14:34:29.976Z,49.70
2019-03-08T14:36:59.483Z,49.20
2019-03-08T14:39:31.034Z,49.00
2019-03-08T14:42:18.130Z,49.30
2019-03-08T14:45:08.738Z,49.60
2019-03-08T14:47:40.780Z,49.60
2019-03-08T14:50:11.988Z,50.10
2019-03-08T14:52:41.581Z,50.20
2019-03-08T14:55:15.008Z,50.50
2019-03-08T14:57:44.442Z,50.20
2019-03-08T15:00:25.391Z,50.70
2019-03-08T15:02:53.387Z,50.70
2019-03-08T15:05:23.030Z,50.50
2019-03-08T15:07:52.493Z,50.50
2019-03-08T15:10:22.047Z,50.90
2019-03-08T15:12:53.075Z,51.20
2019-03-08T15:15:22.866Z,51.60
2019-03-08T15:17:53.668Z,51.80
2019-03-08T15:20:23.898Z,51.80
2019-03-08T15:22:54.832Z,52.50
2019-03-08T15:25:26.141Z,52.30
2019-03-08T15:27:55.653Z,52.40
2019-03-08T15:30:25.091Z,52.20
2019-03-08T15:32:54.604Z,52.10
2019-03-08T15:35:24.051Z,51.70
2019-03-08T15:37:53.513Z,51.70
2019-03-08T15:40:24.687Z,52.40
2019-03-08T15:42:54.132Z,52.30
2019-03-08T15:45:25.864Z,52.30
2019-03-08T15:47:55.378Z,52.40
2019-03-08T15:50:24.830Z,52.30
2019-03-08T15:52:54.373Z,52.70
2019-03-08T15:55:24.021Z,52.70
2019-03-08T15:57:53.463Z,52.80
2019-03-08T16:00:23.205Z,53.10
2019-03-08T16:02:54.539Z,53.10
2019-03-08T16:05:27.734Z,53.70
2019-03-08T16:07:57.838Z,53.30
2019-03-08T16:10:26.149Z,53.90
2019-03-08T16:12:55.674Z,53.50
2019-03-08T16:15:25.129Z,53.00
2019-03-08T16:17:56.080Z,53.00
2019-03-08T16:20:25.513Z,53.20
2019-03-08T16:22:55.230Z,52.70
2019-03-08T16:25:25.906Z,52.60
2019-03-08T16:27:57.761Z,52.70
2019-03-08T16:30:32.610Z,53.30
2019-03-08T16:33:17.183Z,53.40
2019-03-08T16:36:04.474Z,53.70
2019-03-08T16:38:48.617Z,53.80
2019-03-08T16:41:39.845Z,54.90
2019-03-08T16:44:31.089Z,55.20
2019-03-08T16:47:31.343Z,55.50
2019-03-08T16:50:22.091Z,55.60
2019-03-08T16:52:55.692Z,55.90
2019-03-08T16:55:35.365Z,56.50
2019-03-08T16:58:33.624Z,56.80
2019-03-08T17:01:34.047Z,57.20
2019-03-08T17:04:28.785Z,57.60
2019-03-08T17:07:11.042Z,57.90
2019-03-08T17:10:05.186Z,58.30
2019-03-08T17:13:08.950Z,59.10
2019-03-08T17:15:53.418Z,59.30
2019-03-08T17:18:51.238Z,59.90
2019-03-08T17:21:38.369Z,60.70
2019-03-08T17:24:29.978Z,61.10
2019-03-08T17:27:18.390Z,61.10
2019-03-08T17:29:58.164Z,62.70
2019-03-08T17:32:36.831Z,70.60
2019-03-08T17:35:24.436Z,84.30
2019-03-08T17:38:21.918Z,90.60
2019-03-08T17:41:01.824Z,93.30
2019-03-08T17:43:50.262Z,93.40
2019-03-08T17:46:38.665Z,93.50
2019-03-08T17:49:36.402Z,94.20
2019-03-08T17:52:23.095Z,93.70
2019-03-08T17:55:04.060Z,94.20
2019-03-08T17:57:56.004Z,93.60
2019-03-08T18:00:39.535Z,93.80
2019-03-08T18:03:23.412Z,93.30
2019-03-08T18:06:10.426Z,92.80
2019-03-08T18:08:58.857Z,92.70
2019-03-08T18:11:47.899Z,92.60
2019-03-08T18:14:34.977Z,92.70
2019-03-08T18:17:32.200Z,92.10
2019-03-08T18:20:22.207Z,92.10
2019-03-08T18:23:13.603Z,92.00
2019-03-08T18:25:55.291Z,92.70
2019-03-08T18:28:37.417Z,92.10
2019-03-08T18:31:19.177Z,91.70
2019-03-08T18:34:06.174Z,92.40
2019-03-08T18:37:00.643Z,92.20
2019-03-08T18:39:58.112Z,92.50
2019-03-08T18:42:58.829Z,92.20
2019-03-08T18:45:50.919Z,91.80
2019-03-08T18:48:42.317Z,92.40
2019-03-08T18:51:33.967Z,92.20
2019-03-08T18:54:18.816Z,92.80
2019-03-08T18:56:58.306Z,92.50
2019-03-08T18:59:52.669Z,92.90
2019-03-08T19:02:44.093Z,93.10
2019-03-08T19:05:32.489Z,93.20
2019-03-08T19:08:19.839Z,93.50
2019-03-08T19:11:11.394Z,93.50
2019-03-08T19:13:57.941Z,93.80
2019-03-08T19:16:58.294Z,93.80
2019-03-08T19:19:49.724Z,93.80
2019-03-08T19:22:26.854Z,93.90
2019-03-08T19:25:15.364Z,93.60
2019-03-08T19:28:02.321Z,93.50
2019-03-08T19:31:09.002Z,93.50
2019-03-08T19:33:54.611Z,93.50
2019-03-08T19:36:34.900Z,93.80
2019-03-08T19:39:17.674Z,93.90
2019-03-08T19:42:15.143Z,93.90
2019-03-08T19:45:02.297Z,93.70
2019-03-08T19:47:50.750Z,93.60
2019-03-08T19:50:47.979Z,93.50
2019-03-08T19:53:35.256Z,93.40
2019-03-08T19:56:10.843Z,93.90
2019-03-08T19:58:59.300Z,93.90
2019-03-08T20:01:46.234Z,93.70
2019-03-08T20:04:43.982Z,93.40
2019-03-08T20:07:38.468Z,93.00
2019-03-08T20:10:26.566Z,93.00
2019-03-08T20:13:26.265Z,92.60
2019-03-08T20:16:29.990Z,92.80
2019-03-08T20:19:26.825Z,92.90
2019-03-08T20:22:24.240Z,93.00
2019-03-08T20:25:28.128Z,92.90
2019-03-08T20:28:15.518Z,93.40
2019-03-08T20:31:03.266Z,92.90
2019-03-08T20:33:50.661Z,93.10
2019-03-08T20:36:42.257Z,93.20
2019-03-08T20:39:46.037Z,93.40
2019-03-08T20:42:49.532Z,93.50
2019-03-08T20:45:46.670Z,93.80
2019-03-08T20:48:16.148Z,93.90
2019-03-08T20:50:45.641Z,94.00
2019-03-08T20:53:15.114Z,93.80
2019-03-08T20:55:44.948Z,94.00
2019-03-08T20:58:15.012Z,94.10
2019-03-08T21:00:44.586Z,94.10
2019-03-08T21:03:14.071Z,94.00
2019-03-08T21:05:43.548Z,94.40
2019-03-08T21:08:13.187Z,94.40
2019-03-08T21:10:42.974Z,94.70
2019-03-08T21:13:12.440Z,94.60
2019-03-08T21:15:41.900Z,94.60
2019-03-08T21:18:11.829Z,94.60
2019-03-08T21:20:41.718Z,94.70
2019-03-08T21:23:11.144Z,94.80
2019-03-08T21:25:40.649Z,94.80
2019-03-08T21:28:10.302Z,94.80
2019-03-08T21:30:39.762Z,94.50
2019-03-08T21:33:09.257Z,94.60
2019-03-08T21:35:38.938Z,94.70
2019-03-08T21:38:08.416Z,94.50
2019-03-08T21:40:37.934Z,94.40
2019-03-08T21:43:07.850Z,94.40
2019-03-08T21:45:37.337Z,94.80
2019-03-08T21:48:06.855Z,94.70
2019-03-08T21:50:36.424Z,94.90
2019-03-08T21:53:05.960Z,95.10
2019-03-08T21:55:35.724Z,95.30
2019-03-08T21:58:05.218Z,95.70
2019-03-08T22:00:34.772Z,96.00
2019-03-08T22:03:04.235Z,96.20
2019-03-08T22:05:35.901Z,96.40
2019-03-08T22:08:05.364Z,96.70
2019-03-08T22:10:41.960Z,97.00
2019-03-08T22:13:11.435Z,97.20
2019-03-08T22:15:40.941Z,97.40
2019-03-08T22:18:10.451Z,97.60
2019-03-08T22:20:39.877Z,97.50
2019-03-08T22:23:09.525Z,97.60
2019-03-08T22:25:39.005Z,97.70
2019-03-08T22:28:08.442Z,97.90
2019-03-08T22:30:38.086Z,97.90
2019-03-08T22:33:07.817Z,98.10
2019-03-08T22:35:37.479Z,98.00
2019-03-08T22:38:06.942Z,98.00
2019-03-08T22:40:36.485Z,98.00
2019-03-08T22:43:05.951Z,98.00
2019-03-08T22:45:35.423Z,98.10
2019-03-08T22:48:05.809Z,98.00
2019-03-08T22:50:35.321Z,98.10
2019-03-08T22:53:04.753Z,97.90
2019-03-08T22:55:34.261Z,97.90
2019-03-08T22:58:03.755Z,97.90
2019-03-08T23:01:04.825Z,97.80
2019-03-08T23:03:34.274Z,97.80
2019-03-08T23:06:03.774Z,97.70
2019-03-08T23:08:33.590Z,97.70
2019-03-08T23:11:03.051Z,97.80
2019-03-08T23:13:32.482Z,97.80
2019-03-08T23:16:01.959Z,97.80
2019-03-08T23:18:31.748Z,97.90
2019-03-08T23:21:01.467Z,98.20
2019-03-08T23:23:30.948Z,98.40
2019-03-08T23:26:00.393Z,98.50
2019-03-08T23:28:40.763Z,98.70
2019-03-08T23:31:32.760Z,99.00
2019-03-08T23:34:02.961Z,99.00
2019-03-08T23:36:32.538Z,99.20
2019-03-08T23:39:02.033Z,99.30
2019-03-08T23:41:31.607Z,99.50
2019-03-08T23:44:01.061Z,99.60
2019-03-08T23:46:30.537Z,99.60
2019-03-08T23:48:59.976Z,99.70
2019-03-08T23:51:29.823Z,99.80
2019-03-08T23:53:59.240Z,99.90
2019-03-08T23:56:28.753Z,99.80
2019-03-08T23:58:58.367Z,99.90
